Time;durP1;ratioP1;P1;durP2;ratioP2;P2;SDS_P1;SDS_P2;PMS_P1;PMS_P2;Temp;Humidity;BMP_temperature;BMP_pressure;BME280_temperature;BME280_humidity;BME280_pressure;Samples;Min_cycle;Max_cycle;Signal;HPM_P1;HPM_P2
2023/08/20 00:02:19;;;;;;;15.05;12.77;;;23.40;99.90;;;;;;5038345;28;20130;-72
2023/08/20 00:05:05;;;;;;;19.40;12.52;;;23.30;99.90;;;;;;5034220;28;20044;-73
2023/08/20 00:07:51;;;;;;;13.30;11.77;;;23.20;99.90;;;;;;5071514;28;20127;-73
2023/08/20 00:10:37;;;;;;;20.67;13.07;;;23.20;99.90;;;;;;5085298;28;20496;-73
2023/08/20 00:13:23;;;;;;;14.93;12.38;;;23.00;99.90;;;;;;5075390;28;20032;-73
2023/08/20 00:16:09;;;;;;;16.30;12.75;;;23.00;99.90;;;;;;5064554;28;20067;-73
2023/08/20 00:18:55;;;;;;;17.40;13.10;;;23.00;99.90;;;;;;5073844;28;20052;-73
2023/08/20 00:21:42;;;;;;;16.25;12.73;;;23.00;99.90;;;;;;5050576;28;20140;-73
2023/08/20 00:24:28;;;;;;;15.57;12.07;;;23.00;99.90;;;;;;5064674;28;20058;-73
2023/08/20 00:27:14;;;;;;;15.88;13.70;;;23.00;99.90;;;;;;5054653;28;20072;-73
2023/08/20 00:30:00;;;;;;;16.38;14.10;;;22.90;99.90;;;;;;5070701;28;20132;-72
2023/08/20 00:32:46;;;;;;;18.10;14.02;;;22.80;99.90;;;;;;5077109;28;20035;-72
2023/08/20 00:35:33;;;;;;;18.50;16.02;;;22.90;99.90;;;;;;5061768;28;20463;-73
2023/08/20 00:38:19;;;;;;;17.08;15.27;;;23.00;99.90;;;;;;5077364;28;20118;-72
2023/08/20 00:41:05;;;;;;;17.58;15.68;;;22.80;99.90;;;;;;5068029;28;20040;-74
2023/08/20 00:43:51;;;;;;;18.17;14.85;;;22.90;99.90;;;;;;5073411;28;20039;-73
2023/08/20 00:46:37;;;;;;;18.05;14.15;;;22.80;99.90;;;;;;5082716;28;20436;-73
2023/08/20 00:49:23;;;;;;;20.05;14.68;;;22.80;99.90;;;;;;5077250;28;20126;-73
2023/08/20 00:52:09;;;;;;;20.65;17.25;;;22.80;99.90;;;;;;5058855;28;20515;-73
2023/08/20 00:54:55;;;;;;;20.50;15.93;;;22.70;99.90;;;;;;5048550;28;20036;-74
2023/08/20 00:57:41;;;;;;;20.08;15.35;;;22.70;99.90;;;;;;5070237;28;20080;-73
2023/08/20 01:00:29;;;;;;;19.95;15.40;;;22.70;99.90;;;;;;5075216;28;20043;-76
2023/08/20 01:03:15;;;;;;;19.42;16.80;;;22.80;99.90;;;;;;5052256;28;20040;-75
2023/08/20 01:06:18;;;;;;;20.30;15.48;;;22.70;99.90;;;;;;5057822;28;20770;-76
2023/08/20 01:09:24;;;;;;;18.38;16.42;;;22.60;99.90;;;;;;5051146;28;20114;-76
2023/08/20 01:12:10;;;;;;;18.58;15.00;;;22.70;99.90;;;;;;5034793;28;20032;-75
2023/08/20 01:14:56;;;;;;;20.70;15.75;;;22.80;99.90;;;;;;5023019;28;20653;-75
2023/08/20 01:17:42;;;;;;;16.98;14.73;;;22.80;99.90;;;;;;5038502;28;20040;-75
2023/08/20 01:20:32;;;;;;;19.92;14.80;;;22.80;99.90;;;;;;5017010;28;20040;-76
2023/08/20 01:23:42;;;;;;;21.73;16.13;;;22.80;99.90;;;;;;5037970;28;20115;-75
2023/08/20 01:26:53;;;;;;;18.27;14.88;;;22.90;99.90;;;;;;5032170;28;20059;-77
2023/08/20 01:29:39;;;;;;;18.52;14.32;;;22.90;99.90;;;;;;5067557;28;20037;-75
2023/08/20 01:32:27;;;;;;;16.60;14.45;;;22.80;99.90;;;;;;5047287;28;20098;-76
2023/08/20 01:35:16;;;;;;;18.48;15.02;;;22.80;99.90;;;;;;5042655;28;20333;-75
2023/08/20 01:38:02;;;;;;;17.70;13.75;;;22.70;99.90;;;;;;5041402;28;20617;-76
2023/08/20 01:40:48;;;;;;;19.33;14.95;;;22.70;99.90;;;;;;5043000;28;20433;-75
2023/08/20 01:43:34;;;;;;;19.58;14.75;;;22.60;99.90;;;;;;5057093;28;20369;-76
2023/08/20 01:46:21;;;;;;;19.88;15.68;;;22.60;99.90;;;;;;5043086;28;20127;-75
2023/08/20 01:49:07;;;;;;;18.25;14.18;;;22.60;99.90;;;;;;5036385;28;20182;-77
2023/08/20 01:51:52;;;;;;;17.77;14.38;;;22.50;99.90;;;;;;5039984;28;20109;-76
2023/08/20 01:54:38;;;;;;;17.17;13.93;;;22.60;99.90;;;;;;5027984;28;20055;-75
2023/08/20 01:57:24;;;;;;;20.15;14.05;;;22.60;99.90;;;;;;5026631;28;20049;-76
2023/08/20 02:00:11;;;;;;;19.88;14.23;;;22.60;99.90;;;;;;5054226;28;20044;-76
2023/08/20 02:02:57;;;;;;;18.80;14.05;;;22.70;99.90;;;;;;5053502;28;20104;-76
2023/08/20 02:05:43;;;;;;;18.33;13.93;;;22.60;99.90;;;;;;5027148;28;20368;-76
2023/08/20 02:08:29;;;;;;;21.10;13.85;;;22.60;99.90;;;;;;5041821;28;20056;-75
2023/08/20 02:11:16;;;;;;;19.52;15.07;;;22.50;99.90;;;;;;5042633;28;20032;-76
2023/08/20 02:14:03;;;;;;;18.83;15.65;;;22.50;99.90;;;;;;5056498;28;20747;-75
2023/08/20 02:16:49;;;;;;;19.33;15.00;;;22.30;99.90;;;;;;5038882;28;20043;-75
2023/08/20 02:19:35;;;;;;;19.98;15.30;;;22.30;99.90;;;;;;5031324;28;20040;-75
2023/08/20 02:22:20;;;;;;;19.30;13.98;;;22.40;99.90;;;;;;5035139;28;20032;-77
2023/08/20 02:25:07;;;;;;;19.65;14.70;;;22.50;99.90;;;;;;5055436;28;20510;-76
2023/08/20 02:27:53;;;;;;;19.77;15.07;;;22.50;99.90;;;;;;5070263;28;20056;-77
2023/08/20 02:30:42;;;;;;;16.67;14.15;;;22.40;99.90;;;;;;5040612;28;20041;-76
2023/08/20 02:33:28;;;;;;;22.65;15.07;;;22.50;99.90;;;;;;5022297;28;20040;-75
2023/08/20 02:36:14;;;;;;;19.38;14.82;;;22.50;99.90;;;;;;5055647;28;20056;-76
2023/08/20 02:39:00;;;;;;;19.45;15.00;;;22.50;99.90;;;;;;5070791;28;20040;-75
2023/08/20 02:41:46;;;;;;;19.50;14.70;;;22.50;99.90;;;;;;5055745;28;20468;-75
2023/08/20 02:44:32;;;;;;;20.88;14.68;;;22.40;99.90;;;;;;5028005;28;20094;-75
2023/08/20 02:47:18;;;;;;;20.58;15.02;;;22.40;99.90;;;;;;5070850;28;20380;-75
2023/08/20 02:50:04;;;;;;;21.77;15.18;;;22.50;99.90;;;;;;5041340;28;20036;-75
2023/08/20 02:52:50;;;;;;;19.83;15.00;;;22.50;99.90;;;;;;5037318;28;20068;-76
2023/08/20 02:55:36;;;;;;;19.50;14.23;;;22.40;99.90;;;;;;5054276;28;20594;-76
2023/08/20 02:58:24;;;;;;;19.08;14.48;;;22.40;99.90;;;;;;5041364;28;20067;-75
2023/08/20 03:01:23;;;;;;;19.25;14.77;;;22.40;99.90;;;;;;5044820;28;20036;-75
2023/08/20 03:04:10;;;;;;;18.85;14.52;;;22.40;99.90;;;;;;5039006;28;20143;-75
2023/08/20 03:06:56;;;;;;;18.38;14.65;;;22.30;99.90;;;;;;5038507;28;20061;-75
2023/08/20 03:09:42;;;;;;;19.40;14.25;;;22.30;99.90;;;;;;5067078;28;20369;-75
2023/08/20 03:12:30;;;;;;;16.83;13.30;;;22.30;99.90;;;;;;5058970;28;20086;-74
2023/08/20 03:15:16;;;;;;;18.25;13.70;;;22.30;99.90;;;;;;5069295;28;20028;-75
2023/08/20 03:18:02;;;;;;;17.67;14.63;;;22.30;99.90;;;;;;5070330;28;20098;-75
2023/08/20 03:20:48;;;;;;;17.27;13.38;;;22.30;99.90;;;;;;5059966;28;20047;-76
2023/08/20 03:23:36;;;;;;;17.35;14.35;;;22.20;99.90;;;;;;5061101;28;20044;-75
2023/08/20 03:26:22;;;;;;;18.85;13.80;;;22.20;99.90;;;;;;5068765;28;20040;-76
2023/08/20 03:29:09;;;;;;;19.30;13.75;;;22.20;99.90;;;;;;5049935;28;20055;-75
2023/08/20 03:31:57;;;;;;;20.33;13.85;;;22.20;99.90;;;;;;5065931;28;20498;-75
2023/08/20 03:34:46;;;;;;;20.38;14.10;;;22.10;99.90;;;;;;5058060;28;20033;-75
2023/08/20 03:37:33;;;;;;;19.27;13.98;;;22.10;99.90;;;;;;5064590;28;20471;-76
2023/08/20 03:40:19;;;;;;;18.02;14.25;;;22.10;99.90;;;;;;5061346;28;20063;-75
2023/08/20 03:43:06;;;;;;;18.05;14.60;;;22.00;99.90;;;;;;5057401;28;20049;-75
2023/08/20 03:45:53;;;;;;;22.77;15.63;;;22.00;99.90;;;;;;5049543;28;20052;-75
2023/08/20 03:48:41;;;;;;;20.35;14.88;;;21.90;99.90;;;;;;5066345;28;20400;-75
2023/08/20 03:51:28;;;;;;;18.85;13.68;;;21.90;99.90;;;;;;5065489;28;20508;-74
2023/08/20 03:54:15;;;;;;;17.20;14.13;;;21.90;99.90;;;;;;5055510;28;20040;-75
2023/08/20 03:57:02;;;;;;;19.60;14.32;;;21.90;99.90;;;;;;5062676;28;20128;-75
2023/08/20 03:59:48;;;;;;;18.88;14.88;;;21.90;99.90;;;;;;5067629;28;20040;-75
2023/08/20 04:02:34;;;;;;;20.38;15.20;;;21.80;99.90;;;;;;5067002;28;20041;-75
2023/08/20 04:05:20;;;;;;;19.38;14.70;;;21.80;99.90;;;;;;5063928;28;20037;-75
2023/08/20 04:08:06;;;;;;;18.17;14.30;;;21.80;99.90;;;;;;5050378;28;20116;-75
2023/08/20 04:10:53;;;;;;;18.75;13.93;;;21.80;99.90;;;;;;5075318;28;20406;-75
2023/08/20 04:13:43;;;;;;;17.53;13.73;;;21.80;99.90;;;;;;5090210;28;20452;-75
2023/08/20 04:16:29;;;;;;;20.13;15.50;;;21.80;99.90;;;;;;5077829;28;20297;-75
2023/08/20 04:19:17;;;;;;;19.75;14.52;;;21.70;99.90;;;;;;5092676;28;20044;-76
2023/08/20 04:22:03;;;;;;;19.23;15.97;;;21.70;99.90;;;;;;5077158;28;20117;-75
2023/08/20 04:24:49;;;;;;;19.77;15.55;;;21.70;99.90;;;;;;5074082;28;20266;-75
2023/08/20 04:27:35;;;;;;;19.02;14.15;;;21.70;99.90;;;;;;5062900;28;20048;-76
2023/08/20 04:30:21;;;;;;;19.90;14.65;;;21.70;99.90;;;;;;5092055;28;20036;-76
2023/08/20 04:33:08;;;;;;;23.10;16.40;;;21.60;99.90;;;;;;5073124;28;20047;-76
2023/08/20 04:35:55;;;;;;;23.80;15.73;;;21.60;99.90;;;;;;5077552;28;20036;-76
2023/08/20 04:38:40;;;;;;;24.75;15.93;;;21.70;99.90;;;;;;5077562;28;20061;-75
2023/08/20 04:41:26;;;;;;;21.55;15.50;;;21.60;99.90;;;;;;5076700;28;20042;-76
2023/08/20 04:44:12;;;;;;;22.55;15.57;;;21.60;99.90;;;;;;5076877;28;20044;-76
2023/08/20 04:47:01;;;;;;;20.83;16.90;;;21.60;99.90;;;;;;5060462;28;20040;-76
2023/08/20 04:49:48;;;;;;;19.83;15.90;;;21.60;99.90;;;;;;5078938;28;20036;-76
2023/08/20 04:52:34;;;;;;;20.38;16.08;;;21.50;99.90;;;;;;5062935;28;20039;-75
2023/08/20 04:55:20;;;;;;;18.58;16.52;;;21.50;99.90;;;;;;5091318;28;20105;-75
2023/08/20 04:58:06;;;;;;;21.05;16.27;;;21.50;99.90;;;;;;5059775;28;20059;-75
2023/08/20 05:00:52;;;;;;;21.92;15.98;;;21.50;99.90;;;;;;5059460;28;20488;-75
2023/08/20 05:03:38;;;;;;;20.35;15.73;;;21.50;99.90;;;;;;5058469;28;20041;-75
2023/08/20 05:06:25;;;;;;;21.35;16.25;;;21.50;99.90;;;;;;5071045;28;20052;-75
2023/08/20 05:09:12;;;;;;;19.93;16.03;;;21.50;99.90;;;;;;5066713;28;20618;-76
2023/08/20 05:11:58;;;;;;;21.40;16.17;;;21.60;99.90;;;;;;5063267;28;20032;-76
2023/08/20 05:14:44;;;;;;;20.58;16.33;;;21.50;99.90;;;;;;5065385;28;20120;-75
2023/08/20 05:17:30;;;;;;;19.15;14.70;;;21.50;99.90;;;;;;5063011;28;20048;-76
2023/08/20 05:20:16;;;;;;;19.10;14.77;;;21.60;99.90;;;;;;5077592;28;20133;-75
2023/08/20 05:23:03;;;;;;;23.48;15.85;;;21.60;99.90;;;;;;5077578;28;20044;-76
2023/08/20 05:25:49;;;;;;;21.67;15.50;;;21.60;99.90;;;;;;5070823;28;20400;-76
2023/08/20 05:28:35;;;;;;;18.95;15.18;;;21.60;99.90;;;;;;5063133;28;20048;-76
2023/08/20 05:31:21;;;;;;;19.95;15.55;;;21.60;99.90;;;;;;5062583;28;20642;-76
2023/08/20 05:34:07;;;;;;;19.00;15.07;;;21.60;99.90;;;;;;5048196;28;20464;-76
2023/08/20 05:36:53;;;;;;;19.02;15.90;;;21.60;99.90;;;;;;5076560;28;20039;-74
2023/08/20 05:39:43;;;;;;;22.67;17.10;;;21.60;99.90;;;;;;5064654;28;20063;-76
2023/08/20 05:42:29;;;;;;;19.23;14.85;;;21.60;99.90;;;;;;5056385;28;20129;-76
2023/08/20 05:45:15;;;;;;;24.23;16.45;;;21.70;99.90;;;;;;5090496;28;20531;-75
2023/08/20 05:48:00;;;;;;;23.58;17.10;;;21.60;99.90;;;;;;5043955;28;20101;-77
2023/08/20 05:50:46;;;;;;;26.70;15.50;;;21.60;99.90;;;;;;5057535;28;20032;-75
2023/08/20 05:53:32;;;;;;;21.63;16.52;;;21.70;99.90;;;;;;5056283;28;20059;-76
2023/08/20 05:56:18;;;;;;;19.30;14.52;;;21.70;99.90;;;;;;5056615;28;20039;-75
2023/08/20 05:59:04;;;;;;;17.33;13.32;;;21.70;99.90;;;;;;5063073;28;20044;-75
2023/08/20 06:01:53;;;;;;;18.88;13.88;;;21.70;99.90;;;;;;5062090;28;20126;-75
2023/08/20 06:04:38;;;;;;;20.15;12.80;;;21.70;99.90;;;;;;5073489;28;20045;-76
2023/08/20 06:07:24;;;;;;;19.77;12.23;;;21.80;99.90;;;;;;5085929;28;20699;-75
2023/08/20 06:10:11;;;;;;;16.05;12.57;;;21.80;99.90;;;;;;5067206;28;20039;-75
2023/08/20 06:12:58;;;;;;;14.35;10.90;;;21.80;99.90;;;;;;5074947;28;20051;-76
2023/08/20 06:15:45;;;;;;;11.93;8.70;;;21.80;99.90;;;;;;5076138;28;20040;-75
2023/08/20 06:18:31;;;;;;;11.30;8.20;;;21.80;99.90;;;;;;5068590;28;20086;-76
2023/08/20 06:21:17;;;;;;;14.65;9.27;;;21.80;99.90;;;;;;5061090;28;20063;-76
2023/08/20 06:24:05;;;;;;;11.68;8.38;;;21.80;99.90;;;;;;5075519;28;20131;-76
2023/08/20 06:26:51;;;;;;;13.13;7.80;;;21.90;99.90;;;;;;5076440;28;20502;-75
2023/08/20 06:29:38;;;;;;;12.52;7.82;;;21.90;99.90;;;;;;5042083;28;20733;-76
2023/08/20 06:32:24;;;;;;;13.00;8.40;;;21.90;99.90;;;;;;5070154;28;20590;-77
2023/08/20 06:35:11;;;;;;;13.88;7.93;;;21.90;99.90;;;;;;5056942;28;20056;-75
2023/08/20 06:37:56;;;;;;;14.38;9.05;;;21.90;99.90;;;;;;5046124;28;20082;-73
2023/08/20 06:40:42;;;;;;;13.98;8.02;;;21.90;99.90;;;;;;5074972;28;20411;-73
2023/08/20 06:43:28;;;;;;;12.15;8.95;;;21.90;99.90;;;;;;5073350;28;20054;-73
2023/08/20 06:46:15;;;;;;;12.75;8.68;;;21.90;99.90;;;;;;5060374;28;20043;-74
2023/08/20 06:49:00;;;;;;;12.50;7.85;;;22.00;99.90;;;;;;5046994;28;20044;-73
2023/08/20 06:51:48;;;;;;;19.00;9.60;;;22.00;99.90;;;;;;5074922;28;20056;-73
2023/08/20 06:54:35;;;;;;;12.30;8.13;;;21.90;99.90;;;;;;5075863;28;20036;-73
2023/08/20 06:57:21;;;;;;;9.05;6.93;;;21.90;99.90;;;;;;5059632;28;20048;-73
2023/08/20 07:00:07;;;;;;;13.48;7.85;;;22.00;99.90;;;;;;5054662;28;20469;-73
2023/08/20 07:02:53;;;;;;;12.00;7.30;;;22.00;99.90;;;;;;5054902;28;20154;-73
2023/08/20 07:05:39;;;;;;;10.23;6.88;;;22.00;99.90;;;;;;5041299;28;20040;-73
2023/08/20 07:08:25;;;;;;;12.27;6.97;;;22.10;99.90;;;;;;5058865;28;20511;-73
2023/08/20 07:11:11;;;;;;;12.35;6.68;;;22.10;99.90;;;;;;5075183;28;20098;-73
2023/08/20 07:13:57;;;;;;;10.88;7.07;;;22.10;99.90;;;;;;5075172;28;20063;-73
2023/08/20 07:16:45;;;;;;;10.98;6.38;;;22.10;99.90;;;;;;5074776;28;20062;-73
2023/08/20 07:19:31;;;;;;;12.07;7.30;;;22.00;99.90;;;;;;5055508;28;20155;-72
2023/08/20 07:22:17;;;;;;;9.57;6.35;;;22.00;99.90;;;;;;5045586;28;20035;-73
2023/08/20 07:25:03;;;;;;;12.20;6.72;;;22.10;99.90;;;;;;5092343;28;20044;-73
2023/08/20 07:27:51;;;;;;;8.40;5.85;;;22.10;99.90;;;;;;5091073;28;20097;-74
2023/08/20 07:30:37;;;;;;;9.13;5.47;;;22.10;99.90;;;;;;5050260;28;20491;-72
2023/08/20 07:33:23;;;;;;;13.98;6.68;;;22.10;99.90;;;;;;5064147;28;20047;-72
2023/08/20 07:36:09;;;;;;;11.02;6.47;;;22.10;99.90;;;;;;5037859;28;20040;-73
2023/08/20 07:38:55;;;;;;;8.18;5.90;;;22.10;99.90;;;;;;5056471;28;20099;-72
2023/08/20 07:41:42;;;;;;;11.27;5.30;;;22.20;99.90;;;;;;5063927;28;20075;-72
2023/08/20 07:44:29;;;;;;;7.70;5.43;;;22.20;99.90;;;;;;5068099;28;20040;-72
2023/08/20 07:47:17;;;;;;;9.45;5.57;;;22.30;99.90;;;;;;5066729;28;20081;-72
2023/08/20 07:50:04;;;;;;;7.03;4.95;;;22.40;99.90;;;;;;5079397;28;20044;-72
2023/08/20 07:52:50;;;;;;;9.02;4.88;;;22.40;99.90;;;;;;5066039;28;20123;-72
2023/08/20 07:55:36;;;;;;;7.80;4.88;;;22.40;99.90;;;;;;5072872;28;20547;-72
2023/08/20 07:58:24;;;;;;;8.90;4.78;;;22.40;99.90;;;;;;5081721;28;20090;-72
2023/08/20 08:01:13;;;;;;;6.55;5.13;;;22.40;99.90;;;;;;5051429;28;20376;-72
2023/08/20 08:03:59;;;;;;;6.32;4.50;;;22.50;99.90;;;;;;5085009;28;20162;-72
2023/08/20 08:06:45;;;;;;;6.72;3.83;;;22.50;99.90;;;;;;5069392;28;20055;-72
2023/08/20 08:09:32;;;;;;;8.18;4.18;;;22.60;99.90;;;;;;5055637;28;20120;-72
2023/08/20 08:12:19;;;;;;;6.32;4.18;;;22.60;99.90;;;;;;5092064;28;20070;-73
2023/08/20 08:15:06;;;;;;;8.88;5.03;;;22.60;99.90;;;;;;5077727;28;20391;-74
2023/08/20 08:17:51;;;;;;;7.88;4.63;;;22.70;99.90;;;;;;5060719;28;20040;-73
2023/08/20 08:20:38;;;;;;;6.25;3.97;;;22.80;99.90;;;;;;5091062;28;20421;-74
2023/08/20 08:23:24;;;;;;;6.95;3.92;;;22.80;99.90;;;;;;5079286;28;20059;-75
2023/08/20 08:26:10;;;;;;;7.80;4.43;;;22.90;99.90;;;;;;5085490;28;20047;-73
2023/08/20 08:28:57;;;;;;;6.97;4.47;;;23.00;99.90;;;;;;5080788;28;20036;-74
2023/08/20 08:31:42;;;;;;;6.93;4.18;;;23.00;99.90;;;;;;5046486;28;20417;-74
2023/08/20 08:34:28;;;;;;;9.45;4.35;;;23.10;99.90;;;;;;5077010;28;20126;-73
2023/08/20 08:37:15;;;;;;;8.52;4.50;;;23.10;99.90;;;;;;5084013;28;20043;-73
2023/08/20 08:40:05;;;;;;;9.73;4.45;;;23.10;99.90;;;;;;5064273;28;20040;-73
2023/08/20 08:42:52;;;;;;;12.65;4.45;;;23.10;99.90;;;;;;5081698;28;20054;-73
2023/08/20 08:45:38;;;;;;;9.52;4.55;;;23.20;99.90;;;;;;5081244;28;20040;-72
2023/08/20 08:48:25;;;;;;;9.40;4.63;;;23.20;99.90;;;;;;5066812;28;20051;-71
2023/08/20 08:51:14;;;;;;;11.13;5.13;;;23.30;99.90;;;;;;5061742;28;20036;-71
2023/08/20 08:54:00;;;;;;;8.20;4.38;;;23.40;99.90;;;;;;5079407;28;20839;-73
2023/08/20 08:56:46;;;;;;;9.63;4.85;;;23.40;99.90;;;;;;5064120;28;20123;-73
2023/08/20 08:59:32;;;;;;;8.27;4.20;;;23.50;99.90;;;;;;5085153;28;20119;-72
2023/08/20 09:02:19;;;;;;;6.30;4.05;;;23.50;99.90;;;;;;5097354;28;20047;-72
2023/08/20 09:05:06;;;;;;;6.88;4.07;;;23.50;99.90;;;;;;5095929;28;20035;-73
2023/08/20 09:07:56;;;;;;;6.05;3.58;;;23.60;99.90;;;;;;5095614;28;20078;-71
2023/08/20 09:10:42;;;;;;;6.53;3.80;;;23.60;99.90;;;;;;5079592;28;20036;-72
2023/08/20 09:13:36;;;;;;;7.03;4.10;;;23.70;99.90;;;;;;5097152;28;20392;-72
2023/08/20 09:16:23;;;;;;;11.45;4.38;;;23.70;99.90;;;;;;5080807;28;20040;-72
2023/08/20 09:19:10;;;;;;;6.47;4.30;;;23.80;99.90;;;;;;5082044;28;20043;-72
2023/08/20 09:21:59;;;;;;;5.85;4.28;;;23.90;99.90;;;;;;5083257;28;20043;-73
2023/08/20 09:24:55;;;;;;;9.00;4.03;;;24.00;99.90;;;;;;5076790;28;20036;-72
2023/08/20 09:27:41;;;;;;;6.20;3.75;;;24.00;99.90;;;;;;5082510;28;20122;-72
2023/08/20 09:30:27;;;;;;;6.57;4.00;;;24.10;99.90;;;;;;5081204;28;20072;-73
2023/08/20 09:33:14;;;;;;;7.63;4.00;;;24.20;99.90;;;;;;5090159;28;20147;-72
2023/08/20 09:36:00;;;;;;;5.97;3.13;;;24.30;99.90;;;;;;5063693;28;20072;-75
2023/08/20 09:38:46;;;;;;;5.22;3.30;;;24.30;99.90;;;;;;5073533;28;20047;-75
2023/08/20 09:41:32;;;;;;;5.05;3.10;;;24.30;99.90;;;;;;5083478;28;20039;-75
2023/08/20 09:44:18;;;;;;;8.30;2.88;;;24.30;99.90;;;;;;5082242;28;20046;-75
2023/08/20 09:47:09;;;;;;;8.00;3.30;;;24.40;99.90;;;;;;5080200;28;20054;-75
2023/08/20 09:49:55;;;;;;;5.65;2.95;;;24.40;99.90;;;;;;5085702;28;20046;-75
2023/08/20 09:52:45;;;;;;;5.50;3.13;;;24.40;99.90;;;;;;5082619;28;20071;-75
2023/08/20 09:55:34;;;;;;;6.60;3.45;;;24.50;99.90;;;;;;5083997;28;20042;-74
2023/08/20 09:58:25;;;;;;;7.03;3.10;;;24.50;99.90;;;;;;5082304;28;20043;-75
2023/08/20 10:01:11;;;;;;;5.03;2.85;;;24.50;99.90;;;;;;5090146;28;20352;-75
2023/08/20 10:03:57;;;;;;;7.38;3.20;;;24.70;99.90;;;;;;5061666;28;20044;-74
2023/08/20 10:06:43;;;;;;;8.13;3.20;;;24.90;99.90;;;;;;5062052;28;20186;-76
2023/08/20 10:09:29;;;;;;;5.70;3.00;;;25.00;99.90;;;;;;5063047;28;20111;-75
2023/08/20 10:12:15;;;;;;;4.65;2.80;;;25.10;99.90;;;;;;5061808;28;20091;-74
2023/08/20 10:15:01;;;;;;;5.50;2.60;;;25.30;99.90;;;;;;5074686;28;20040;-75
2023/08/20 10:17:47;;;;;;;5.40;2.90;;;25.30;99.90;;;;;;5081990;28;20051;-74
2023/08/20 10:20:33;;;;;;;7.38;3.20;;;25.30;99.90;;;;;;5062893;28;20121;-74
2023/08/20 10:23:25;;;;;;;5.38;2.80;;;25.40;99.90;;;;;;5075593;28;20139;-74
2023/08/20 10:26:11;;;;;;;5.45;2.67;;;25.40;99.90;;;;;;5075724;28;20040;-75
2023/08/20 10:29:36;;;;;;;3.83;2.60;;;25.60;99.90;;;;;;5071429;28;20044;-75
2023/08/20 10:32:47;;;;;;;6.43;2.63;;;25.60;99.90;;;;;;5101339;28;20542;-74
2023/08/20 10:35:42;;;;;;;4.78;2.45;;;25.70;99.90;;;;;;5102253;28;20044;-76
2023/08/20 10:38:28;;;;;;;4.63;2.28;;;25.70;99.90;;;;;;5099521;28;20074;-74
2023/08/20 10:41:16;;;;;;;4.25;2.50;;;25.80;99.90;;;;;;5090303;28;20422;-74
2023/08/20 10:44:02;;;;;;;4.25;2.10;;;25.90;99.90;;;;;;5077430;28;20043;-74
2023/08/20 10:46:53;;;;;;;6.35;2.72;;;26.00;98.60;;;;;;5058617;28;20039;-74
2023/08/20 10:49:39;;;;;;;5.30;2.53;;;26.00;99.50;;;;;;5066568;28;20046;-73
2023/08/20 10:52:25;;;;;;;5.13;2.47;;;26.00;99.70;;;;;;5070699;28;20123;-74
2023/08/20 10:55:11;;;;;;;3.75;2.30;;;26.10;99.70;;;;;;5061801;28;20036;-74
2023/08/20 10:57:59;;;;;;;3.70;2.08;;;26.20;99.40;;;;;;5070433;28;20048;-75
2023/08/20 11:00:46;;;;;;;6.20;2.63;;;26.30;99.90;;;;;;5087083;28;20418;-74
2023/08/20 11:03:33;;;;;;;5.95;3.13;;;26.40;98.70;;;;;;5079426;28;20050;-74
2023/08/20 11:06:19;;;;;;;4.28;2.50;;;26.50;99.90;;;;;;5077312;28;20043;-75
2023/08/20 11:09:06;;;;;;;6.25;2.20;;;26.70;99.90;;;;;;5070481;28;20468;-75
2023/08/20 11:11:52;;;;;;;4.13;2.00;;;26.90;99.90;;;;;;5071978;28;20040;-77
2023/08/20 11:14:38;;;;;;;5.90;2.45;;;27.00;99.90;;;;;;5070446;28;20047;-75
2023/08/20 11:17:24;;;;;;;5.32;2.65;;;27.10;99.70;;;;;;5090288;28;20067;-75
2023/08/20 11:20:14;;;;;;;7.95;2.45;;;27.20;99.30;;;;;;5089440;28;20126;-74
2023/08/20 11:23:00;;;;;;;4.43;2.42;;;27.30;97.60;;;;;;5078018;28;20047;-75
2023/08/20 11:25:46;;;;;;;3.75;2.00;;;27.10;97.90;;;;;;5085878;28;20043;-75
2023/08/20 11:28:32;;;;;;;5.60;1.98;;;27.30;96.20;;;;;;5085483;28;20044;-75
2023/08/20 11:31:18;;;;;;;5.53;1.90;;;27.20;95.20;;;;;;5084790;28;20036;-74
2023/08/20 11:34:04;;;;;;;4.05;2.05;;;27.20;95.80;;;;;;5049944;28;20107;-75
2023/08/20 11:36:50;;;;;;;6.13;2.38;;;27.50;96.80;;;;;;5074620;28;20036;-75
2023/08/20 11:39:36;;;;;;;3.97;2.30;;;27.50;97.80;;;;;;5077885;28;20478;-75
2023/08/20 11:42:23;;;;;;;5.00;2.10;;;27.70;97.50;;;;;;5101017;28;20129;-76
2023/08/20 11:45:10;;;;;;;6.13;2.45;;;27.90;97.00;;;;;;5081557;28;20067;-76
2023/08/20 11:47:59;;;;;;;4.50;2.20;;;28.00;97.30;;;;;;5090499;28;20039;-77
2023/08/20 11:50:45;;;;;;;6.15;2.40;;;28.00;96.70;;;;;;5059588;28;20032;-75
2023/08/20 11:53:31;;;;;;;6.03;2.63;;;28.10;95.70;;;;;;5073381;28;20036;-74
2023/08/20 11:56:17;;;;;;;4.13;2.60;;;28.00;94.60;;;;;;5090432;28;20039;-76
2023/08/20 11:59:03;;;;;;;4.22;2.47;;;28.00;94.60;;;;;;5076658;28;20055;-75
2023/08/20 12:01:56;;;;;;;5.63;2.28;;;27.80;94.20;;;;;;5080613;28;20067;-75
2023/08/20 12:04:42;;;;;;;5.80;2.70;;;27.90;94.90;;;;;;5087571;28;20050;-76
2023/08/20 12:07:28;;;;;;;5.22;2.45;;;28.10;96.70;;;;;;5058820;28;20379;-74
2023/08/20 12:10:21;;;;;;;4.10;2.10;;;28.20;95.20;;;;;;5070775;28;20047;-75
2023/08/20 12:13:08;;;;;;;5.45;2.92;;;28.30;96.80;;;;;;5089143;28;20038;-75
2023/08/20 12:15:54;;;;;;;3.75;2.50;;;28.50;96.50;;;;;;5082816;28;20035;-75
2023/08/20 12:18:40;;;;;;;5.88;3.10;;;28.30;94.30;;;;;;5113984;27;20130;-76
2023/08/20 12:21:26;;;;;;;5.97;2.70;;;28.40;95.80;;;;;;5068580;28;20099;-76
2023/08/20 12:24:12;;;;;;;5.40;2.47;;;28.60;94.70;;;;;;5082120;28;20479;-76
2023/08/20 12:26:59;;;;;;;4.93;2.60;;;28.50;94.00;;;;;;5078639;28;20055;-75
2023/08/20 12:29:48;;;;;;;5.00;2.50;;;28.50;94.70;;;;;;5109354;28;20044;-77
2023/08/20 12:32:34;;;;;;;4.30;2.30;;;28.70;94.30;;;;;;5086511;28;20036;-78
2023/08/20 12:35:20;;;;;;;4.15;2.55;;;28.60;93.50;;;;;;5061213;28;20051;-77
2023/08/20 12:38:07;;;;;;;3.78;2.40;;;28.60;93.70;;;;;;5088428;28;20127;-76
2023/08/20 12:40:53;;;;;;;3.67;2.70;;;28.70;94.60;;;;;;5082211;28;20063;-77
2023/08/20 12:43:39;;;;;;;4.82;2.80;;;29.00;95.00;;;;;;5088453;28;20038;-77
2023/08/20 12:46:25;;;;;;;4.53;2.70;;;29.20;95.20;;;;;;5063417;28;20123;-76
2023/08/20 12:49:11;;;;;;;5.38;2.50;;;29.40;93.50;;;;;;5068242;28;20055;-77
2023/08/20 12:51:57;;;;;;;5.50;3.28;;;29.00;93.40;;;;;;5096583;28;20039;-77
2023/08/20 12:54:43;;;;;;;4.47;2.13;;;28.80;93.20;;;;;;5079418;28;20122;-76
2023/08/20 12:57:29;;;;;;;3.83;2.42;;;28.70;93.90;;;;;;5086970;28;20055;-76
2023/08/20 13:00:16;;;;;;;4.38;2.55;;;28.90;93.50;;;;;;5081282;28;20078;-78
2023/08/20 13:03:02;;;;;;;3.85;2.13;;;29.10;94.50;;;;;;5084063;28;20092;-78
2023/08/20 13:05:48;;;;;;;5.20;2.25;;;29.50;95.30;;;;;;5062144;28;20044;-78
2023/08/20 13:08:35;;;;;;;4.28;2.50;;;29.90;95.30;;;;;;5096394;28;20051;-78
2023/08/20 13:11:21;;;;;;;3.28;2.15;;;29.90;92.90;;;;;;5082067;28;20043;-76
2023/08/20 13:14:07;;;;;;;3.35;2.30;;;29.90;92.60;;;;;;5075674;28;20054;-78
2023/08/20 13:16:54;;;;;;;3.35;2.35;;;29.90;92.30;;;;;;5050039;28;20032;-76
2023/08/20 13:19:42;;;;;;;5.65;2.47;;;29.90;92.20;;;;;;5060662;28;20087;-77
2023/08/20 13:22:28;;;;;;;4.40;2.72;;;29.70;92.20;;;;;;5081425;28;20051;-77
2023/08/20 13:25:16;;;;;;;6.72;2.75;;;29.80;91.70;;;;;;5103660;28;20441;-76
2023/08/20 13:28:03;;;;;;;5.93;2.75;;;30.00;92.30;;;;;;5074137;28;20069;-76
2023/08/20 13:30:49;;;;;;;4.50;2.28;;;30.20;92.00;;;;;;5089504;28;20066;-77
2023/08/20 13:33:36;;;;;;;5.65;2.85;;;30.00;91.30;;;;;;5080177;27;20044;-77
2023/08/20 13:36:23;;;;;;;4.75;2.10;;;30.30;91.10;;;;;;5071969;28;20121;-77
2023/08/20 13:39:09;;;;;;;5.30;2.63;;;30.60;92.10;;;;;;5076252;28;20130;-77
2023/08/20 13:41:56;;;;;;;6.75;2.20;;;30.90;92.60;;;;;;5080766;28;20106;-78
2023/08/20 13:44:42;;;;;;;3.85;2.22;;;30.90;92.60;;;;;;5095683;28;20134;-77
2023/08/20 13:47:28;;;;;;;4.57;2.50;;;31.20;92.40;;;;;;5063408;28;20773;-77
2023/08/20 13:50:14;;;;;;;3.78;2.10;;;31.00;90.30;;;;;;5096645;28;20043;-77
2023/08/20 13:53:00;;;;;;;4.18;2.25;;;31.10;91.40;;;;;;5088549;28;20040;-77
2023/08/20 13:55:46;;;;;;;5.55;2.53;;;31.20;91.10;;;;;;5052126;28;20135;-76
2023/08/20 13:58:32;;;;;;;5.03;2.50;;;31.20;92.00;;;;;;5089002;28;20143;-77
2023/08/20 14:01:18;;;;;;;3.55;2.08;;;31.30;91.70;;;;;;5080298;28;20032;-76
2023/08/20 14:04:04;;;;;;;6.05;2.55;;;31.00;89.80;;;;;;5095059;28;20496;-76
2023/08/20 14:06:50;;;;;;;3.63;2.15;;;30.80;90.90;;;;;;5065853;28;20077;-77
2023/08/20 14:09:36;;;;;;;4.50;2.17;;;31.10;91.30;;;;;;5069516;28;20051;-78
2023/08/20 14:12:22;;;;;;;6.40;2.25;;;31.70;90.90;;;;;;5066819;28;20097;-77
2023/08/20 14:15:08;;;;;;;6.93;2.17;;;31.80;88.90;;;;;;5066950;28;20039;-77
2023/08/20 14:17:54;;;;;;;5.10;2.22;;;31.90;88.70;;;;;;5079436;28;20063;-78
2023/08/20 14:20:40;;;;;;;5.05;2.13;;;31.90;89.30;;;;;;5057585;28;20460;-77